Historyczne dane pomiarowe

Dodano dane terminowe – wersja testowa.

Dane z okresu 1951-2019

Wersja bazy: 1.34 [2019-03-16, lista zmian], aktualizacja planowana na 2019-04-15

Dane meteo z obszaru Polski uzyskane na podstawie danych udostępnionych przez Instytut Meteorologii i Gospodarki Wodnej – Państwowy Instytut Badawczy.

 

Wybierz Datę:    

       

TemperaturaWilgotnośćZachmurzenieWiatrCiśnienieWidzialnośćZjawiska
 Data    tng td wb rh cc ccl cl cm ch dir g1 g2 mslp ppp      
1999-07-23 00:00:00 13.1--- 12.1 12.593wxwxwx0wx--1014.6 972.3 0.0---wx
1999-07-23 01:00:00 12.6--- 11.7 12.194wxwxwxwx0wx--1014.7 972.3----wx
1999-07-23 02:00:00 12.1--- 11.4 11.795wxwxwxwx0wx--1014.9 972.4----wx
1999-07-23 03:00:00 11.9--- 10.5 11.191wxwxwxwx0wx--1014.5 972.0----wx
1999-07-23 04:00:00 11.8--- 10.0 10.889wxwxwx0wx--1014.7 972.2----wx
1999-07-23 05:00:00 12.4--- 11.2 11.792wxwxwx0wx--1015.2 972.7----wx
1999-07-23 06:00:00 12.5--- 11.8 12.196wxwxwxwx0wx--1015.4 973.0 0.0---wx
1999-07-23 07:00:00 13.8--- 12.1 12.889wxwxwxwx0wx--1015.4 973.1----wx
1999-07-23 08:00:00 15.1--- 10.9 12.776wxwxwxwx0wx--1015.7 973.6----wx
1999-07-23 09:00:00 15.9--- 9.8 12.567wxwxwxwx1wx--1015.5 973.5----wx
1999-07-23 10:00:00 17.5--- 9.7 13.160wxwxwxwx1wx--1015.0 973.3----wx
1999-07-23 11:00:00 19.0--- 10.1 13.956wxwxwxwxwx1wx--1014.8 973.3----wx
1999-07-23 12:00:00 18.8--- 9.9 13.756wxwxwxwx2wx--1014.7 973.2 0.0---wx
1999-07-23 13:00:00 19.5--- 9.5 13.852wxwxwxwx1wx--1014.9 973.5----wx
1999-07-23 14:00:00 20.2--- 10.4 14.553wxwxwxwx1wx--1014.9 973.6----wx
1999-07-23 15:00:00 19.2--- 11.4 14.660wxwxwxwx2wx--1015.7 974.2----wx
1999-07-23 16:00:00 18.3--- 11.9 14.566wxwxwxwxwx2wx--1016.0 974.4----wx
1999-07-23 17:00:00 16.9--- 12.9 14.577wxwxwxwxwx1wx--1016.8 974.9----wx
1999-07-23 18:00:00 15.7--- 13.0 14.184wxwxwx2wx--1017.7 975.6 0.0---wx
1999-07-23 19:00:00 13.8--- 12.6 13.192wxwxwx1wx--1019.0 976.6----wxw1
1999-07-23 20:00:00 13.5--- 12.6 13.095wxwxwx1wx--1019.7 977.2----wx
1999-07-23 21:00:00 13.3--- 11.7 12.490wxwxwx0wx--1020.1 977.6----wxw1
1999-07-23 22:00:00 13.0--- 11.4 12.190wxwxwx1wx--1020.5 977.9----wx
1999-07-23 23:00:00 12.8--- 11.6 12.192wxwxwx1wx--1020.6 978.0----wx

 

Źródłem pochodzenia danych jest Instytut Meteorologii i Gospodarki Wodnej – Państwowy Instytut Badawczy. Dane Instytutu Meteorologii i Gospodarki Wodnej – Państwowego Instytutu Badawczego zostały przetworzone.

Dane źródłowe można odnaleźć na stronie https://dane.imgw.pl